Time;durP1;ratioP1;P1;durP2;ratioP2;P2;SDS_P1;SDS_P2;PMS_P1;PMS_P2;Temp;Humidity;BMP_temperature;BMP_pressure;BME280_temperature;BME280_humidity;BME280_pressure;Samples;Min_cycle;Max_cycle;Signal;HPM_P1;HPM_P2
2021/10/08 00:00:29;;;;;;;;;7.75;7.75;;;;;;;;5017715;28;45453;-65
2021/10/08 00:02:55;;;;;;;;;10.50;8.75;;;;;;;;5017680;28;45267;-69
2021/10/08 00:05:20;;;;;;;;;9.00;7.75;;;;;;;;5015873;28;48439;-73
2021/10/08 00:07:46;;;;;;;;;8.25;7.50;;;;;;;;5017209;28;45642;-74
2021/10/08 00:10:11;;;;;;;;;14.00;11.50;;;;;;;;5016514;28;45375;-69
2021/10/08 00:12:36;;;;;;;;;11.50;9.25;;;;;;;;5017723;28;45173;-70
2021/10/08 00:15:02;;;;;;;;;10.00;10.00;;;;;;;;5017315;28;46241;-67
2021/10/08 00:17:27;;;;;;;;;14.25;13.00;;;;;;;;5017424;28;45811;-70
2021/10/08 00:19:53;;;;;;;;;11.50;11.50;;;;;;;;5017341;28;45375;-66
2021/10/08 00:22:18;;;;;;;;;12.25;9.00;;;;;;;;5017651;28;45459;-68
2021/10/08 00:24:43;;;;;;;;;9.25;7.25;;;;;;;;5017380;28;46396;-68
2021/10/08 00:27:08;;;;;;;;;12.75;10.25;;;;;;;;5017553;28;45290;-70
2021/10/08 00:29:33;;;;;;;;;11.50;10.50;;;;;;;;5017030;28;45312;-71
2021/10/08 00:31:59;;;;;;;;;11.25;11.00;;;;;;;;5017334;28;45345;-67
2021/10/08 00:34:24;;;;;;;;;9.75;8.50;;;;;;;;5016985;28;45250;-66
2021/10/08 00:36:49;;;;;;;;;15.75;11.75;;;;;;;;5016893;28;45212;-71
2021/10/08 00:39:14;;;;;;;;;16.00;12.00;;;;;;;;5016891;28;45156;-64
2021/10/08 00:41:40;;;;;;;;;13.50;11.00;;;;;;;;5017084;28;45213;-65
2021/10/08 00:44:05;;;;;;;;;12.50;11.25;;;;;;;;5016144;28;46748;-66
2021/10/08 00:46:30;;;;;;;;;13.25;12.25;;;;;;;;5016969;28;45641;-65
2021/10/08 00:48:55;;;;;;;;;12.25;11.00;;;;;;;;5016828;28;45284;-66
2021/10/08 00:51:22;;;;;;;;;14.75;12.50;;;;;;;;5015573;28;45430;-66
2021/10/08 00:53:47;;;;;;;;;15.50;14.25;;;;;;;;5016504;28;46236;-65
2021/10/08 00:56:12;;;;;;;;;23.00;18.50;;;;;;;;5016890;28;45362;-64
2021/10/08 00:58:41;;;;;;;;;18.00;14.50;;;;;;;;5016736;28;45414;-66
2021/10/08 01:01:07;;;;;;;;;12.75;12.25;;;;;;;;5016902;28;45366;-67
2021/10/08 01:03:32;;;;;;;;;16.75;14.00;;;;;;;;5016314;28;46565;-66
2021/10/08 01:05:57;;;;;;;;;14.50;14.25;;;;;;;;5016223;28;45313;-71
2021/10/08 01:08:22;;;;;;;;;16.00;14.50;;;;;;;;5015208;28;45257;-70
2021/10/08 01:10:48;;;;;;;;;19.50;15.25;;;;;;;;5016564;28;45277;-66
2021/10/08 01:13:13;;;;;;;;;13.75;13.75;;;;;;;;5015062;28;46348;-66
2021/10/08 01:15:39;;;;;;;;;16.50;14.50;;;;;;;;5016516;28;45233;-66
2021/10/08 01:18:05;;;;;;;;;21.25;16.25;;;;;;;;5016523;28;45351;-70
2021/10/08 01:20:30;;;;;;;;;11.50;11.50;;;;;;;;5015052;28;45325;-73
2021/10/08 01:22:58;;;;;;;;;15.50;14.75;;;;;;;;5015929;28;46774;-71
2021/10/08 01:25:27;;;;;;;;;13.75;13.00;;;;;;;;5016029;28;45384;-69
2021/10/08 01:27:53;;;;;;;;;14.75;13.75;;;;;;;;5016108;28;45301;-72
2021/10/08 01:30:19;;;;;;;;;16.75;13.75;;;;;;;;5015932;28;45582;-68
2021/10/08 01:32:45;;;;;;;;;18.75;15.50;;;;;;;;5016233;28;45206;-72
2021/10/08 01:35:10;;;;;;;;;19.50;15.75;;;;;;;;5016021;28;45507;-73
2021/10/08 01:37:36;;;;;;;;;15.50;15.00;;;;;;;;5015909;28;45280;-65
2021/10/08 01:40:03;;;;;;;;;16.00;14.25;;;;;;;;5016027;28;45374;-68
2021/10/08 01:42:28;;;;;;;;;13.75;13.75;;;;;;;;5015630;28;46652;-68
2021/10/08 01:44:54;;;;;;;;;18.00;15.00;;;;;;;;5014345;28;45425;-67
2021/10/08 01:47:19;;;;;;;;;13.50;13.50;;;;;;;;5015785;28;45452;-70
2021/10/08 01:49:44;;;;;;;;;14.50;13.50;;;;;;;;5016415;28;45328;-69
2021/10/08 01:52:09;;;;;;;;;17.50;16.25;;;;;;;;5015486;28;45518;-66
2021/10/08 01:54:34;;;;;;;;;16.75;14.50;;;;;;;;5015401;28;45417;-68
2021/10/08 01:57:00;;;;;;;;;17.50;14.75;;;;;;;;5013384;28;45425;-64
2021/10/08 01:59:25;;;;;;;;;15.75;15.50;;;;;;;;5015832;28;45462;-69
2021/10/08 02:01:50;;;;;;;;;18.00;14.00;;;;;;;;5015463;28;46336;-71
2021/10/08 02:04:16;;;;;;;;;18.50;15.00;;;;;;;;5015698;28;45300;-70
2021/10/08 02:06:41;;;;;;;;;15.50;13.50;;;;;;;;5015551;28;45339;-69
2021/10/08 02:09:06;;;;;;;;;19.75;13.75;;;;;;;;5015824;28;45525;-71
2021/10/08 02:11:32;;;;;;;;;13.25;13.25;;;;;;;;5015391;28;45257;-68
2021/10/08 02:13:58;;;;;;;;;17.75;13.75;;;;;;;;5014151;28;45226;-73
2021/10/08 02:16:23;;;;;;;;;14.25;14.25;;;;;;;;5015694;28;45395;-70
2021/10/08 02:18:49;;;;;;;;;16.00;13.25;;;;;;;;5015896;28;45525;-69
2021/10/08 02:21:14;;;;;;;;;17.75;15.25;;;;;;;;5014003;28;46500;-65
2021/10/08 02:23:39;;;;;;;;;34.75;30.50;;;;;;;;5015331;28;45211;-67
2021/10/08 02:26:05;;;;;;;;;17.75;17.00;;;;;;;;5015244;28;45632;-66
2021/10/08 02:28:30;;;;;;;;;17.75;15.50;;;;;;;;5015581;28;45231;-70
2021/10/08 02:30:55;;;;;;;;;16.75;14.25;;;;;;;;5015026;28;45502;-69
2021/10/08 02:33:20;;;;;;;;;13.75;13.75;;;;;;;;5015094;28;45136;-71
2021/10/08 02:35:45;;;;;;;;;16.75;15.00;;;;;;;;5014552;28;45284;-65
2021/10/08 02:38:11;;;;;;;;;20.25;18.75;;;;;;;;5015296;28;45490;-68
2021/10/08 02:40:36;;;;;;;;;14.00;14.00;;;;;;;;5013574;28;47608;-67
2021/10/08 02:43:02;;;;;;;;;21.25;19.00;;;;;;;;5015163;28;45287;-69
2021/10/08 02:45:28;;;;;;;;;18.50;15.25;;;;;;;;5015286;28;45433;-69
2021/10/08 02:47:53;;;;;;;;;16.00;13.75;;;;;;;;5015241;28;45331;-69
2021/10/08 02:50:18;;;;;;;;;17.75;15.75;;;;;;;;5015103;28;45603;-65
2021/10/08 02:52:43;;;;;;;;;18.00;17.50;;;;;;;;5015107;28;45410;-67
2021/10/08 02:55:09;;;;;;;;;18.50;16.75;;;;;;;;5013931;28;45405;-65
2021/10/08 02:57:36;;;;;;;;;15.50;15.50;;;;;;;;5015333;28;45319;-66
2021/10/08 03:00:02;;;;;;;;;18.00;15.75;;;;;;;;5014992;28;45481;-68
2021/10/08 03:02:27;;;;;;;;;18.50;15.50;;;;;;;;5016100;28;45354;-66
2021/10/08 03:04:52;;;;;;;;;15.50;15.25;;;;;;;;5016309;28;45272;-69
2021/10/08 03:07:18;;;;;;;;;18.75;13.75;;;;;;;;5017249;28;45168;-69
2021/10/08 03:09:43;;;;;;;;;15.00;15.00;;;;;;;;5018219;28;45402;-66
2021/10/08 03:12:08;;;;;;;;;20.25;15.50;;;;;;;;5018423;28;45263;-69
2021/10/08 03:14:33;;;;;;;;;17.25;17.25;;;;;;;;5018744;28;45311;-68
2021/10/08 03:16:59;;;;;;;;;18.75;18.75;;;;;;;;5018712;28;45299;-65
2021/10/08 03:19:24;;;;;;;;;16.25;15.50;;;;;;;;5018606;28;46270;-68
2021/10/08 03:21:49;;;;;;;;;22.75;19.25;;;;;;;;5019522;28;45246;-71
2021/10/08 03:24:14;;;;;;;;;16.25;16.00;;;;;;;;5019798;28;45323;-68
2021/10/08 03:26:40;;;;;;;;;16.75;16.75;;;;;;;;5018930;28;45428;-69
2021/10/08 03:29:05;;;;;;;;;19.50;16.50;;;;;;;;5018032;28;45343;-70
2021/10/08 03:31:30;;;;;;;;;22.50;19.25;;;;;;;;5018120;28;45237;-69
2021/10/08 03:33:55;;;;;;;;;20.75;18.50;;;;;;;;5018244;28;45231;-66
2021/10/08 03:37:05;;;;;;;;;20.50;17.00;;;;;;;;5018715;28;45359;-65
2021/10/08 03:39:10;;;;;;;;;21.25;19.00;;;;;;;;5014772;28;45577;-69
2021/10/08 03:41:38;;;;;;;;;19.25;18.25;;;;;;;;5018164;28;45383;-70
2021/10/08 03:44:04;;;;;;;;;16.25;16.00;;;;;;;;5017999;28;45276;-66
2021/10/08 03:46:36;;;;;;;;;14.50;14.00;;;;;;;;5018222;28;45210;-70
2021/10/08 03:49:12;;;;;;;;;19.50;17.50;;;;;;;;5017480;28;45337;-70
2021/10/08 03:51:38;;;;;;;;;16.00;15.00;;;;;;;;5017747;28;45412;-70
2021/10/08 03:54:04;;;;;;;;;21.25;21.25;;;;;;;;5017814;28;45327;-70
2021/10/08 03:56:30;;;;;;;;;20.50;19.50;;;;;;;;5017021;28;45594;-69
2021/10/08 03:58:55;;;;;;;;;20.00;19.75;;;;;;;;5018677;28;45426;-74
2021/10/08 04:01:21;;;;;;;;;21.50;21.50;;;;;;;;5019437;28;45445;-75
2021/10/08 04:03:46;;;;;;;;;19.00;19.00;;;;;;;;5018123;28;45393;-65
2021/10/08 04:06:11;;;;;;;;;24.50;22.00;;;;;;;;5017789;28;45307;-72
2021/10/08 04:08:37;;;;;;;;;25.75;22.75;;;;;;;;5017602;28;46470;-70
2021/10/08 04:11:02;;;;;;;;;23.25;21.00;;;;;;;;5017440;28;45398;-67
2021/10/08 04:13:27;;;;;;;;;22.75;21.25;;;;;;;;5017461;28;45330;-74
2021/10/08 04:15:52;;;;;;;;;24.50;22.50;;;;;;;;5018133;28;45735;-71
2021/10/08 04:18:18;;;;;;;;;23.75;21.75;;;;;;;;5016625;28;45299;-68
2021/10/08 04:20:43;;;;;;;;;24.25;23.75;;;;;;;;5017057;28;45363;-69
2021/10/08 04:23:08;;;;;;;;;26.50;22.25;;;;;;;;5017221;28;45307;-67
2021/10/08 04:25:34;;;;;;;;;29.00;26.00;;;;;;;;5017625;28;45530;-68
2021/10/08 04:27:59;;;;;;;;;26.50;24.50;;;;;;;;5015685;28;47222;-69
2021/10/08 04:30:25;;;;;;;;;28.25;24.00;;;;;;;;5015475;28;45789;-65
2021/10/08 04:32:50;;;;;;;;;28.25;25.25;;;;;;;;5017434;28;45323;-74
2021/10/08 04:35:16;;;;;;;;;27.50;24.00;;;;;;;;5017289;28;45376;-68
2021/10/08 04:37:41;;;;;;;;;23.00;23.00;;;;;;;;5016508;28;46355;-65
2021/10/08 04:40:06;;;;;;;;;33.50;28.25;;;;;;;;5016610;28;45316;-68
2021/10/08 04:42:32;;;;;;;;;28.25;23.25;;;;;;;;5016560;28;45408;-66
2021/10/08 04:44:57;;;;;;;;;29.25;26.50;;;;;;;;5017101;28;45539;-68
2021/10/08 04:47:22;;;;;;;;;30.75;27.75;;;;;;;;5016717;28;45658;-67
2021/10/08 04:49:48;;;;;;;;;32.25;28.25;;;;;;;;5016334;28;45338;-65
2021/10/08 04:52:13;;;;;;;;;24.25;23.75;;;;;;;;5016694;28;45329;-64
2021/10/08 04:54:38;;;;;;;;;29.50;28.50;;;;;;;;5016933;28;45690;-68
2021/10/08 04:57:04;;;;;;;;;29.50;28.00;;;;;;;;5016538;28;45385;-69
2021/10/08 04:59:29;;;;;;;;;32.25;26.75;;;;;;;;5016665;28;45327;-72
2021/10/08 05:01:54;;;;;;;;;31.25;28.00;;;;;;;;5017068;28;45182;-68
2021/10/08 05:04:20;;;;;;;;;27.75;27.25;;;;;;;;5017293;28;45556;-68
2021/10/08 05:06:46;;;;;;;;;31.00;27.00;;;;;;;;5016844;28;46369;-70
2021/10/08 05:09:11;;;;;;;;;33.50;28.25;;;;;;;;5016636;28;45439;-73
2021/10/08 05:11:36;;;;;;;;;27.75;25.00;;;;;;;;5016751;28;45340;-66
2021/10/08 05:14:02;;;;;;;;;32.25;27.75;;;;;;;;5016941;28;45550;-69
2021/10/08 05:16:27;;;;;;;;;28.00;24.50;;;;;;;;5017274;28;46154;-70
2021/10/08 05:18:52;;;;;;;;;32.00;30.25;;;;;;;;5016686;28;45303;-68
2021/10/08 05:21:18;;;;;;;;;35.50;31.00;;;;;;;;5015762;28;45438;-69
2021/10/08 05:23:43;;;;;;;;;29.50;29.25;;;;;;;;5017149;28;45578;-70
2021/10/08 05:26:08;;;;;;;;;36.25;31.00;;;;;;;;5016160;28;45418;-73
2021/10/08 05:28:33;;;;;;;;;29.25;28.50;;;;;;;;5016000;28;45249;-74
2021/10/08 05:30:59;;;;;;;;;33.00;29.00;;;;;;;;5015756;28;45291;-67
2021/10/08 05:33:24;;;;;;;;;31.00;30.50;;;;;;;;5014853;28;45367;-67
2021/10/08 05:35:49;;;;;;;;;37.00;31.00;;;;;;;;5015922;28;45482;-70
2021/10/08 05:38:14;;;;;;;;;28.25;25.75;;;;;;;;5016481;28;45343;-74
2021/10/08 05:40:39;;;;;;;;;35.00;31.00;;;;;;;;5016559;28;45327;-73
2021/10/08 05:43:05;;;;;;;;;29.50;26.50;;;;;;;;5016416;28;45340;-71
2021/10/08 05:45:30;;;;;;;;;37.25;30.75;;;;;;;;5016142;28;45338;-72
2021/10/08 05:47:55;;;;;;;;;36.50;30.75;;;;;;;;5016691;28;45411;-70
2021/10/08 05:50:21;;;;;;;;;37.00;33.25;;;;;;;;5016570;28;45291;-72
2021/10/08 05:52:46;;;;;;;;;39.50;32.25;;;;;;;;5014993;28;45655;-71
2021/10/08 05:55:11;;;;;;;;;39.75;34.25;;;;;;;;5016320;28;46356;-70
2021/10/08 05:57:36;;;;;;;;;40.25;33.25;;;;;;;;5016191;28;45307;-71
2021/10/08 06:00:02;;;;;;;;;36.50;32.00;;;;;;;;5014889;28;45389;-71
2021/10/08 06:02:28;;;;;;;;;34.75;31.00;;;;;;;;5016293;28;45637;-66
2021/10/08 06:04:53;;;;;;;;;33.75;29.75;;;;;;;;5015713;28;45342;-68
2021/10/08 06:07:18;;;;;;;;;33.75;30.25;;;;;;;;5015803;28;45254;-71
2021/10/08 06:09:46;;;;;;;;;37.50;32.00;;;;;;;;5015517;28;45387;-67
2021/10/08 06:12:11;;;;;;;;;41.00;33.00;;;;;;;;5015712;28;45433;-66
2021/10/08 06:14:37;;;;;;;;;31.25;28.25;;;;;;;;5015620;28;45452;-68
2021/10/08 06:17:02;;;;;;;;;42.00;33.00;;;;;;;;5015644;28;45469;-72
2021/10/08 06:19:27;;;;;;;;;27.25;25.50;;;;;;;;5015934;28;45379;-66
2021/10/08 06:21:52;;;;;;;;;40.25;32.50;;;;;;;;5015776;28;45578;-70
2021/10/08 06:24:18;;;;;;;;;38.75;31.25;;;;;;;;5015127;28;46188;-69
2021/10/08 06:26:43;;;;;;;;;28.00;27.25;;;;;;;;5015055;28;45384;-68
2021/10/08 06:29:08;;;;;;;;;38.75;32.50;;;;;;;;5015335;28;45407;-66
2021/10/08 06:31:33;;;;;;;;;42.00;33.00;;;;;;;;5015482;28;45509;-65
2021/10/08 06:33:58;;;;;;;;;31.00;26.25;;;;;;;;5015482;28;46222;-71
2021/10/08 06:36:24;;;;;;;;;33.00;32.00;;;;;;;;5015041;28;45463;-70
2021/10/08 06:38:49;;;;;;;;;38.50;31.50;;;;;;;;5015004;28;45336;-68
2021/10/08 06:41:14;;;;;;;;;34.75;31.00;;;;;;;;5013595;28;45362;-66
2021/10/08 06:43:40;;;;;;;;;42.75;33.00;;;;;;;;5014576;28;46506;-71
2021/10/08 06:46:05;;;;;;;;;32.75;29.50;;;;;;;;5013662;28;45355;-67
2021/10/08 06:48:30;;;;;;;;;32.00;29.00;;;;;;;;5015257;28;45352;-66
2021/10/08 06:50:57;;;;;;;;;34.75;31.00;;;;;;;;5014886;28;45269;-68
2021/10/08 06:53:23;;;;;;;;;33.25;30.50;;;;;;;;5014899;28;45277;-66
2021/10/08 06:55:48;;;;;;;;;38.75;32.00;;;;;;;;5014696;28;45327;-68
2021/10/08 06:58:13;;;;;;;;;33.75;31.00;;;;;;;;5014681;28;45335;-70
2021/10/08 07:00:38;;;;;;;;;35.25;31.00;;;;;;;;5014968;28;45231;-66
2021/10/08 07:03:03;;;;;;;;;34.00;31.50;;;;;;;;5014289;28;46621;-67
2021/10/08 07:05:29;;;;;;;;;34.25;30.25;;;;;;;;5014913;28;45302;-65
2021/10/08 07:07:54;;;;;;;;;36.25;31.00;;;;;;;;5014513;28;45269;-66
2021/10/08 07:10:20;;;;;;;;;38.75;33.25;;;;;;;;5014707;28;45231;-67
2021/10/08 07:12:45;;;;;;;;;34.50;30.50;;;;;;;;5014394;28;46742;-66
2021/10/08 07:15:20;;;;;;;;;42.50;34.00;;;;;;;;5014877;28;45383;-76
2021/10/08 07:17:50;;;;;;;;;42.50;33.75;;;;;;;;5015215;28;45284;-74
2021/10/08 07:20:17;;;;;;;;;37.75;32.25;;;;;;;;5015221;28;45430;-75
2021/10/08 07:22:42;;;;;;;;;37.50;31.00;;;;;;;;5014485;28;45370;-72
2021/10/08 07:25:08;;;;;;;;;42.00;33.75;;;;;;;;5014676;28;45299;-76
2021/10/08 07:27:34;;;;;;;;;40.25;31.25;;;;;;;;5013471;28;45381;-71
2021/10/08 07:29:59;;;;;;;;;33.50;29.75;;;;;;;;5013758;28;45301;-70
2021/10/08 07:32:25;;;;;;;;;32.75;30.50;;;;;;;;5013986;28;45370;-77
2021/10/08 07:34:50;;;;;;;;;34.50;30.75;;;;;;;;5013162;28;45626;-76
2021/10/08 07:37:15;;;;;;;;;38.50;32.25;;;;;;;;5014296;28;45283;-69
2021/10/08 07:39:42;;;;;;;;;41.25;34.00;;;;;;;;5013694;28;45570;-70
2021/10/08 07:42:07;;;;;;;;;39.00;33.50;;;;;;;;5014317;28;47010;-72
2021/10/08 07:44:32;;;;;;;;;41.00;32.75;;;;;;;;5014654;28;45287;-72
2021/10/08 07:46:57;;;;;;;;;37.00;31.00;;;;;;;;5013109;28;45360;-71
2021/10/08 07:49:23;;;;;;;;;34.25;31.00;;;;;;;;5014455;28;45259;-74
2021/10/08 07:51:48;;;;;;;;;38.75;33.25;;;;;;;;5014112;28;46052;-75
2021/10/08 07:54:13;;;;;;;;;39.50;34.25;;;;;;;;5015485;28;45293;-69
2021/10/08 07:56:38;;;;;;;;;42.25;33.75;;;;;;;;5017514;28;45385;-67
2021/10/08 07:59:05;;;;;;;;;37.75;33.50;;;;;;;;5018279;28;45298;-70
2021/10/08 08:01:31;;;;;;;;;44.50;32.50;;;;;;;;5018192;28;46522;-68
2021/10/08 08:03:56;;;;;;;;;42.50;36.00;;;;;;;;5017489;28;45452;-70
2021/10/08 08:06:21;;;;;;;;;42.75;36.00;;;;;;;;5017481;28;45224;-70
2021/10/08 08:08:46;;;;;;;;;48.00;36.25;;;;;;;;5017449;28;45284;-68
2021/10/08 08:11:12;;;;;;;;;39.00;32.00;;;;;;;;5017208;28;45326;-68
2021/10/08 08:13:37;;;;;;;;;34.50;31.25;;;;;;;;5015659;28;45249;-72
2021/10/08 08:16:02;;;;;;;;;39.25;32.00;;;;;;;;5017603;28;45350;-67
2021/10/08 08:18:27;;;;;;;;;37.50;32.50;;;;;;;;5017588;28;45264;-71
2021/10/08 08:20:53;;;;;;;;;28.50;25.25;;;;;;;;5016983;28;46508;-71
2021/10/08 08:23:18;;;;;;;;;35.25;31.25;;;;;;;;5016788;28;45224;-71
2021/10/08 08:25:44;;;;;;;;;39.75;33.75;;;;;;;;5017178;28;45252;-71
2021/10/08 08:28:09;;;;;;;;;36.50;30.00;;;;;;;;5017091;28;45419;-71
2021/10/08 08:30:38;;;;;;;;;44.75;36.75;;;;;;;;5017176;28;46726;-70
2021/10/08 08:33:03;;;;;;;;;40.50;32.50;;;;;;;;5017222;28;45406;-69
2021/10/08 08:35:29;;;;;;;;;33.75;30.25;;;;;;;;5015522;28;45341;-73
2021/10/08 08:37:54;;;;;;;;;37.50;32.25;;;;;;;;5015664;28;45308;-70
2021/10/08 08:40:19;;;;;;;;;46.25;36.50;;;;;;;;5016772;28;46445;-76
2021/10/08 08:42:44;;;;;;;;;44.50;33.50;;;;;;;;5016657;28;45285;-70
2021/10/08 08:45:10;;;;;;;;;32.75;30.25;;;;;;;;5016934;28;45325;-69
2021/10/08 08:47:35;;;;;;;;;40.75;30.50;;;;;;;;5017216;28;45296;-69
2021/10/08 08:50:01;;;;;;;;;43.00;34.00;;;;;;;;5016473;28;46156;-68
2021/10/08 08:52:26;;;;;;;;;34.25;30.00;;;;;;;;5016697;28;45406;-71
2021/10/08 08:54:53;;;;;;;;;31.50;27.75;;;;;;;;5017059;28;45793;-68
2021/10/08 08:57:20;;;;;;;;;40.00;33.50;;;;;;;;5015425;28;45294;-70
2021/10/08 08:59:57;;;;;;;;;28.50;26.50;;;;;;;;5016538;28;46825;-68
2021/10/08 09:02:27;;;;;;;;;47.75;35.75;;;;;;;;5015225;28;45422;-69
2021/10/08 09:04:53;;;;;;;;;32.00;27.75;;;;;;;;5016201;28;45339;-70
2021/10/08 09:07:19;;;;;;;;;32.00;28.25;;;;;;;;5016581;28;45601;-73
2021/10/08 09:09:44;;;;;;;;;33.75;30.00;;;;;;;;5016515;28;46279;-71
2021/10/08 09:12:10;;;;;;;;;31.00;28.00;;;;;;;;5016636;28;45421;-71
2021/10/08 09:14:35;;;;;;;;;33.50;29.75;;;;;;;;5017189;28;45439;-74
2021/10/08 09:17:03;;;;;;;;;36.50;31.75;;;;;;;;5018020;28;45236;-70
2021/10/08 09:19:46;;;;;;;;;52.50;41.25;;;;;;;;5017070;28;45553;-72
2021/10/08 09:22:12;;;;;;;;;32.50;28.75;;;;;;;;5016256;28;45338;-75
2021/10/08 09:24:37;;;;;;;;;13.00;11.25;;;;;;;;5016260;28;45388;-73
2021/10/08 09:27:12;;;;;;;;;24.75;24.00;;;;;;;;5016405;28;45481;-76
2021/10/08 09:29:48;;;;;;;;;36.25;28.25;;;;;;;;5014344;28;48391;-75
2021/10/08 09:32:14;;;;;;;;;25.00;22.25;;;;;;;;5015755;28;45398;-72
2021/10/08 09:34:39;;;;;;;;;28.00;24.75;;;;;;;;5016468;28;45414;-75
2021/10/08 09:37:07;;;;;;;;;27.25;22.25;;;;;;;;5016449;28;45285;-74
2021/10/08 09:39:33;;;;;;;;;24.50;22.50;;;;;;;;5015843;28;46093;-72
2021/10/08 09:42:05;;;;;;;;;18.25;17.25;;;;;;;;5016868;28;45225;-71
2021/10/08 09:44:31;;;;;;;;;26.25;18.50;;;;;;;;5016776;28;45555;-70
2021/10/08 09:47:10;;;;;;;;;19.25;18.50;;;;;;;;5018967;28;45281;-69
2021/10/08 09:49:36;;;;;;;;;29.25;23.75;;;;;;;;5019550;28;45599;-70
2021/10/08 09:52:20;;;;;;;;;23.50;21.25;;;;;;;;5016170;28;45462;-75
2021/10/08 09:54:46;;;;;;;;;17.00;14.50;;;;;;;;5020992;28;44861;-74
2021/10/08 09:57:12;;;;;;;;;13.25;11.50;;;;;;;;5020176;28;45995;-71
2021/10/08 09:59:38;;;;;;;;;16.75;12.00;;;;;;;;5016740;28;45548;-74
2021/10/08 10:02:04;;;;;;;;;11.00;11.00;;;;;;;;5016244;28;45405;-71
2021/10/08 10:04:43;;;;;;;;;14.00;12.25;;;;;;;;5014137;28;45456;-75
2021/10/08 10:07:09;;;;;;;;;20.50;12.75;;;;;;;;5015998;28;45202;-74
2021/10/08 10:09:35;;;;;;;;;14.00;11.75;;;;;;;;5014829;28;45674;-76
2021/10/08 10:12:00;;;;;;;;;10.00;9.75;;;;;;;;5015191;28;45326;-72
2021/10/08 10:14:26;;;;;;;;;17.25;13.75;;;;;;;;5015219;28;45263;-76
2021/10/08 10:16:51;;;;;;;;;18.00;14.50;;;;;;;;5013448;28;45314;-77
2021/10/08 10:19:16;;;;;;;;;13.25;12.25;;;;;;;;5015206;28;45691;-73
2021/10/08 10:21:42;;;;;;;;;14.00;12.75;;;;;;;;5015468;28;45351;-74
2021/10/08 10:24:07;;;;;;;;;11.25;9.75;;;;;;;;5013935;28;45324;-75
2021/10/08 10:26:35;;;;;;;;;17.25;11.75;;;;;;;;5015591;28;45287;-75
2021/10/08 10:29:02;;;;;;;;;11.25;10.00;;;;;;;;5013575;28;46931;-73
2021/10/08 10:31:28;;;;;;;;;12.25;10.25;;;;;;;;5014224;28;45760;-68
2021/10/08 10:34:00;;;;;;;;;11.25;11.00;;;;;;;;5013699;28;45430;-74
2021/10/08 10:36:26;;;;;;;;;12.25;12.00;;;;;;;;5015409;28;45489;-76
2021/10/08 10:38:52;;;;;;;;;12.25;9.75;;;;;;;;5014440;28;45409;-73
2021/10/08 10:41:17;;;;;;;;;10.50;9.25;;;;;;;;5014746;28;45536;-75
2021/10/08 10:43:48;;;;;;;;;20.00;15.50;;;;;;;;5015676;28;45341;-75
2021/10/08 10:46:20;;;;;;;;;7.50;7.00;;;;;;;;5014005;28;45384;-75
2021/10/08 10:49:10;;;;;;;;;11.25;11.00;;;;;;;;5014753;28;46319;-75
2021/10/08 10:51:35;;;;;;;;;43.00;36.50;;;;;;;;5014212;28;45428;-73
2021/10/08 10:54:00;;;;;;;;;16.00;13.50;;;;;;;;5014634;28;45165;-75
2021/10/08 10:56:38;;;;;;;;;15.00;11.50;;;;;;;;5014855;28;45585;-77
2021/10/08 10:59:21;;;;;;;;;13.75;11.25;;;;;;;;5014583;28;45385;-72
2021/10/08 11:02:19;;;;;;;;;7.75;7.75;;;;;;;;5014500;28;45419;-71
2021/10/08 11:04:45;;;;;;;;;14.00;13.75;;;;;;;;4992207;28;45313;-72
2021/10/08 11:07:11;;;;;;;;;20.75;17.75;;;;;;;;5015343;28;45173;-73
2021/10/08 11:09:37;;;;;;;;;10.00;8.00;;;;;;;;5014733;28;45336;-75
2021/10/08 11:12:22;;;;;;;;;22.75;20.75;;;;;;;;5014721;28;45376;-77
2021/10/08 11:14:47;;;;;;;;;25.75;23.00;;;;;;;;5014553;28;45336;-72
2021/10/08 11:17:31;;;;;;;;;21.00;18.00;;;;;;;;5015061;28;45327;-70
2021/10/08 11:19:56;;;;;;;;;13.75;11.25;;;;;;;;5014261;28;45700;-67
2021/10/08 11:22:40;;;;;;;;;21.00;21.00;;;;;;;;5014094;28;45379;-73
2021/10/08 11:25:05;;;;;;;;;8.00;8.00;;;;;;;;5014653;28;45392;-72
2021/10/08 11:27:31;;;;;;;;;9.75;9.25;;;;;;;;5015127;28;45580;-70
2021/10/08 11:30:01;;;;;;;;;15.00;14.25;;;;;;;;5018138;28;46182;-72
2021/10/08 11:32:26;;;;;;;;;9.25;9.25;;;;;;;;5018179;28;45785;-71
2021/10/08 11:34:53;;;;;;;;;13.50;11.50;;;;;;;;5018424;28;45321;-69
2021/10/08 11:37:18;;;;;;;;;12.00;9.00;;;;;;;;5018651;28;45380;-71
2021/10/08 11:39:45;;;;;;;;;20.00;17.75;;;;;;;;5016708;28;46967;-74
2021/10/08 11:42:15;;;;;;;;;27.50;22.75;;;;;;;;5017818;28;45490;-72
2021/10/08 11:50:11;;;;;;;;;11.50;11.50;;;;;;;;5017376;28;46123;-73
2021/10/08 11:52:41;;;;;;;;;9.75;9.00;;;;;;;;5016110;28;45314;-73
2021/10/08 11:55:08;;;;;;;;;19.50;17.25;;;;;;;;5017530;28;45438;-70
2021/10/08 11:57:52;;;;;;;;;10.50;10.50;;;;;;;;5017549;28;45616;-69
2021/10/08 12:00:18;;;;;;;;;9.25;8.00;;;;;;;;5017886;28;46026;-69
2021/10/08 12:02:57;;;;;;;;;9.00;8.50;;;;;;;;5016395;28;46027;-73
2021/10/08 12:05:22;;;;;;;;;10.25;9.25;;;;;;;;5016566;28;45273;-69
2021/10/08 12:07:58;;;;;;;;;5.75;4.75;;;;;;;;5017878;28;45534;-74
2021/10/08 12:10:24;;;;;;;;;28.50;25.50;;;;;;;;5016721;28;47547;-76
2021/10/08 12:12:53;;;;;;;;;9.50;9.50;;;;;;;;5017534;28;45285;-73
2021/10/08 12:15:26;;;;;;;;;7.25;7.25;;;;;;;;5017463;28;45343;-71
2021/10/08 12:17:52;;;;;;;;;18.25;12.50;;;;;;;;5016072;28;45703;-72
2021/10/08 12:20:19;;;;;;;;;12.00;9.50;;;;;;;;5018001;28;45361;-76
2021/10/08 12:22:44;;;;;;;;;18.00;16.75;;;;;;;;5017760;28;45340;-76
2021/10/08 12:25:09;;;;;;;;;15.00;14.50;;;;;;;;5017465;28;45501;-72
2021/10/08 12:27:34;;;;;;;;;10.75;10.75;;;;;;;;5017902;28;45532;-73
2021/10/08 12:30:00;;;;;;;;;10.25;10.25;;;;;;;;5015703;28;47348;-78
2021/10/08 12:32:25;;;;;;;;;12.75;9.50;;;;;;;;5017367;28;45322;-77
2021/10/08 12:34:52;;;;;;;;;8.50;8.50;;;;;;;;5017865;28;45401;-79
2021/10/08 12:37:21;;;;;;;;;11.00;10.00;;;;;;;;5018217;28;45485;-76
2021/10/08 12:40:09;;;;;;;;;12.25;10.00;;;;;;;;5017106;28;46881;-75
2021/10/08 12:42:36;;;;;;;;;7.50;6.00;;;;;;;;5017013;28;45283;-76
2021/10/08 12:45:02;;;;;;;;;9.00;8.25;;;;;;;;5017315;28;45454;-79
2021/10/08 12:47:40;;;;;;;;;7.00;6.75;;;;;;;;5017338;28;45187;-74
2021/10/08 12:50:07;;;;;;;;;6.50;5.75;;;;;;;;5016423;28;45377;-72
2021/10/08 12:52:32;;;;;;;;;24.75;22.00;;;;;;;;5016786;28;45421;-77
2021/10/08 12:55:11;;;;;;;;;15.00;11.25;;;;;;;;5015764;28;45322;-76
2021/10/08 12:57:37;;;;;;;;;8.75;6.75;;;;;;;;5015610;28;45269;-75
2021/10/08 13:00:03;;;;;;;;;6.00;6.00;;;;;;;;5016894;28;45269;-78
2021/10/08 13:02:40;;;;;;;;;9.25;8.50;;;;;;;;5016148;28;45305;-78
2021/10/08 13:05:06;;;;;;;;;8.00;7.25;;;;;;;;5016759;28;45422;-75
2021/10/08 13:07:32;;;;;;;;;8.75;7.75;;;;;;;;5016929;28;45393;-77
2021/10/08 13:10:04;;;;;;;;;6.75;6.75;;;;;;;;5017514;28;45704;-76
2021/10/08 13:12:47;;;;;;;;;9.50;8.50;;;;;;;;5017012;28;45335;-71
2021/10/08 13:15:14;;;;;;;;;14.00;11.00;;;;;;;;5016143;28;45439;-76
2021/10/08 13:17:40;;;;;;;;;8.00;6.25;;;;;;;;5016771;28;45254;-69
2021/10/08 13:20:08;;;;;;;;;12.00;11.00;;;;;;;;5016410;28;45899;-69
2021/10/08 13:22:33;;;;;;;;;9.50;9.00;;;;;;;;5016600;28;45376;-71
2021/10/08 13:25:00;;;;;;;;;9.00;8.00;;;;;;;;5016510;28;45353;-75
2021/10/08 13:27:25;;;;;;;;;6.00;6.00;;;;;;;;5016580;28;45399;-77
2021/10/08 13:29:51;;;;;;;;;9.25;6.25;;;;;;;;5017067;28;46496;-70
2021/10/08 13:32:16;;;;;;;;;7.50;7.25;;;;;;;;5014838;28;45365;-75
2021/10/08 13:34:42;;;;;;;;;8.25;7.00;;;;;;;;5016268;28;45232;-71
2021/10/08 13:37:08;;;;;;;;;13.75;11.50;;;;;;;;5016460;28;45200;-75
2021/10/08 13:39:33;;;;;;;;;10.25;8.50;;;;;;;;5014367;28;46080;-73
2021/10/08 13:41:59;;;;;;;;;12.00;10.00;;;;;;;;5015578;28;45299;-75
2021/10/08 13:44:24;;;;;;;;;11.25;8.25;;;;;;;;5016618;28;45287;-77
2021/10/08 13:46:49;;;;;;;;;8.00;8.00;;;;;;;;5016801;28;45613;-74
2021/10/08 13:49:14;;;;;;;;;6.00;6.00;;;;;;;;5016410;28;46459;-70
2021/10/08 13:51:39;;;;;;;;;7.50;7.50;;;;;;;;5015960;28;45173;-74
2021/10/08 13:54:05;;;;;;;;;9.25;8.00;;;;;;;;5015190;28;45278;-75
2021/10/08 13:56:30;;;;;;;;;8.00;7.50;;;;;;;;5016145;28;45570;-69
2021/10/08 13:58:55;;;;;;;;;6.75;6.50;;;;;;;;5015668;28;46522;-74
2021/10/08 14:01:20;;;;;;;;;7.00;7.00;;;;;;;;5014657;28;45294;-77
2021/10/08 14:03:59;;;;;;;;;8.25;8.00;;;;;;;;5015353;28;45333;-71
2021/10/08 14:06:48;;;;;;;;;11.50;9.25;;;;;;;;5019383;28;45426;-74
2021/10/08 14:10:16;;;;;;;;;6.00;6.00;;;;;;;;5019919;28;46176;-72
2021/10/08 14:11:59;;;;;;;;;6.50;5.75;;;;;;;;5018794;28;45422;-72
2021/10/08 14:14:24;;;;;;;;;8.00;8.00;;;;;;;;5016415;28;45394;-69
2021/10/08 14:16:49;;;;;;;;;8.75;6.50;;;;;;;;5017434;28;45232;-72
2021/10/08 14:19:14;;;;;;;;;5.50;4.75;;;;;;;;5017559;28;45376;-76
2021/10/08 14:21:40;;;;;;;;;8.75;6.50;;;;;;;;5018877;28;45802;-71
2021/10/08 14:24:06;;;;;;;;;9.25;6.25;;;;;;;;5016455;28;45342;-70